Weather observations for the past three days for
Dickinson, Dickinson Municipal Airport
Imperial (Metric)
Date Time (mdt) Wind (mph) Vis. (mi.) Weather Sky Cond. Temperature (ºF) Relative Humidity Wind Chill (°F) Heat Index (°F) Pressure Precipitation (in)
Air Dwpt 6 hour altimeter (in) sea level (mb) 1 hr 3 hr 6 hr
Max. Min.
03 00:56 W 6 10.00 Fair CLR 36 27 70% 32 29.95 1014.4
02 23:56 NW 6 10.00 Fair CLR 42.1 28 64 42.1 58% 39 29.95 1014.1
02 22:56 NW 8 10.00 Fair CLR 46.9 28 48% 44 29.94 1013.6
02 21:56 NW 7 10.00 Fair CLR 48.9 28 44% 46 29.93 1013.6
02 20:56 N 7 10.00 Fair CLR 52 28 40% 29.92 1013.3
02 19:56 N 8 10.00 Fair CLR 57 28.9 34% 29.9 1012.6
02 18:56 NW 18 G 25 10.00 Fair CLR 62.1 28.9 29% 29.89 1012.1
02 17:56 NW 15 G 28 10.00 A Few Clouds FEW080 64 30.9 70 64 29% 29.89 1012.1
02 16:56 NW 16 G 24 10.00 Partly Cloudy SCT080 66 30.9 27% 29.88 1012.1
02 15:56 N 18 G 33 10.00 A Few Clouds FEW080 66.9 30.9 26% 29.88 1012.1
02 14:56 NW 20 G 32 10.00 A Few Clouds FEW110 66.9 30.9 26% 29.89 1012.2
02 13:56 NW 22 G 31 10.00 Fair and Breezy CLR 68 33.1 27% 29.89 1012.3
02 12:56 N 21 G 30 10.00 Fair and Breezy CLR 68 34 28% 29.89 1012.1
02 11:56 N 18 G 30 10.00 Partly Cloudy SCT120 68 34 68 42.1 28% 29.9 1012.6
02 10:56 N 16 G 25 10.00 Fair CLR 66 33.1 29% 29.89 1012.5
02 09:56 NW 16 G 24 10.00 Fair CLR 61 30.9 32% 29.9 1012.9
02 08:56 W 20 G 29 10.00 Fair CLR 57.9 30 35% 29.9 1012.7
02 07:56 W 16 10.00 Fair CLR 53.1 30 41% 29.9 1012.8
02 06:56 SW 8 10.00 Fair CLR 46 28.9 51% 42 29.91 1012.9
02 05:56 SW 18 10.00 Fair CLR 43 27 43 35.1 53% 35 29.92 1013.3
02 04:56 S 13 10.00 A Few Clouds FEW120 39 27 62% 32 29.94 1014.3
02 03:56 S 14 10.00 Fair CLR 39 27 62% 32 29.96 1015.2
02 02:56 S 14 10.00 Fair CLR 41 27 57% 34 29.98 1015.4
02 01:56 SW 16 10.00 Fair CLR 39.9 27 60% 32 29.99 1016.1
02 00:56 S 14 10.00 Fair CLR 41 27 57% 34 30.01 1016.9
01 23:56 S 9 10.00 Fair CLR 35.1 25 60.1 35.1 67% 29 30.03 1017.7
01 22:56 S 10 10.00 Fair CLR 37 24.1 59% 30 30.03 1018.0
01 21:56 S 9 10.00 Fair CLR 37.9 24.1 57% 32 30.04 1018.5
01 20:56 S 8 10.00 Fair CLR 45 23 42% 41 30.05 1018.3
01 19:56 S 6 10.00 Fair CLR 52 24.1 34% 30.04 1017.9
01 18:56 Calm 10.00 Fair CLR 59 21.9 24% 30.05 1018.3
01 17:56 SW 5 10.00 Fair CLR 60.1 21.9 61 55.9 23% 30.05 1018.6
01 16:56 Vrbl 6 10.00 Fair CLR 60.1 23 24% 30.06 1019.0
01 15:56 Vrbl 6 10.00 A Few Clouds FEW085 59 21.9 24% 30.07 1019.3
01 14:56 Calm 10.00 Partly Cloudy SCT085 60.1 24.1 25% 30.08 1019.9
01 13:56 NE 9 G 20 10.00 Mostly Cloudy BKN080 59 24.1 26% 30.09 1020.3
01 12:56 Vrbl 6 10.00 Fair CLR 57 23 27% 30.09 1020.2
01 11:56 Calm 10.00 A Few Clouds FEW070 55.9 24.1 57.9 30.9 29% 30.1 1020.7
01 10:56 Vrbl 6 10.00 Fair CLR 55 25 31% 30.1 1020.6
01 09:56 E 9 10.00 Fair CLR 52 24.1 34% 30.1 1020.5
01 08:56 N 7 10.00 Fair CLR 51.1 19.9 29% 30.1 1020.4
01 07:56 W 3 10.00 Fair CLR 46.9 25 42% 30.09 1020.0
01 06:56 Calm 10.00 Fair CLR 36 25 64% 30.07 1019.7
01 05:56 SW 5 10.00 Fair CLR 32 19 32 25 59% 28 30.07 1019.8
01 04:56 SW 3 10.00 Fair CLR 30 19 64% 30.07 1019.8
01 03:56 W 3 10.00 Fair CLR 30 19 64% 30.08 1020.1
01 02:56 SW 6 10.00 Fair CLR 28 18 66% 22 30.08 1020.2
01 01:56 S 5 10.00 Fair CLR 25 17.1 72% 20 30.09 1020.7
01 00:56 SW 3 10.00 Fair CLR 30.9 19 61% 30.09 1020.7
30 23:56 S 5 10.00 Fair CLR 30 19.9 52 28.9 66% 26 30.09 1020.7
30 22:56 S 7 10.00 Overcast OVC085 33.1 19.9 58% 28 30.09 1020.5
30 21:56 SE 6 10.00 Fair CLR 35.1 19 52% 31 30.08 1020.2
30 20:56 E 8 10.00 Fair CLR 39 19 45% 34 30.08 1019.9
30 19:56 N 8 10.00 Fair CLR 43 17.1 35% 39 30.07 1019.8
30 18:56 N 10 10.00 Fair CLR 50 16 26% 46 30.07 1019.5
30 17:56 NW 7 G 21 10.00 Fair CLR 51.1 14 54 50 23% 30.07 1019.8
30 16:56 N 14 G 21 10.00 Fair CLR 53.1 17.1 24% 30.07 1019.9
30 15:56 NW 14 G 25 10.00 Fair CLR 53.1 16 23% 30.07 1020.1
30 14:56 N 13 G 23 10.00 Fair CLR 53.1 18 25% 30.07 1020.1
30 13:56 N 18 G 26 10.00 Fair CLR 52 19 27% 30.08 1020.5
30 12:56 NW 15 G 28 10.00 Fair CLR 51.1 18 27% 30.09 1020.9
30 11:56 NW 22 G 32 10.00 Fair and Breezy CLR 50 19 51.1 30.9 29% 44 30.11 1021.7
30 10:56 N 17 G 32 10.00 Fair CLR 48.9 21 33% 43 30.11 1021.6
30 09:56 N 16 G 31 10.00 A Few Clouds FEW080 48 21.9 36% 42 30.11 1021.0
30 08:56 NW 18 10.00 Partly Cloudy FEW070 SCT085 45 21.9 40% 38 30.11 1021.3
30 07:56 NW 13 G 22 10.00 Partly Cloudy SCT075 39 23 53% 32 30.12 1021.6
30 06:56 W 13 10.00 Fair CLR 35.1 21 57% 27 30.11 1021.3
30 05:56 W 13 10.00 Mostly Cloudy BKN100 30.9 19.9 30.9 21 64% 22 30.11 1021.2
30 04:56 W 8 10.00 Partly Cloudy SCT100 28 19.9 72% 21 30.12 1021.8
30 03:56 W 10 10.00 Partly Cloudy SCT100 27 19 72% 18 30.13 1022.3
30 02:56 SW 12 10.00 Fair CLR 28 19 69% 19 30.14 1022.4
30 01:56 SW 5 10.00 Fair CLR 25 18 75% 20 30.15 1022.7
Date Time (mdt) Wind (mph) Vis. (mi.) Weather Sky Cond. Air Dwpt Max. Min. Relative Humidity Wind Chill (°F) Heat Index (°F) altimeter (in) sea level (mb) 1 hr 3 hr 6 hr
6 hour
Temperature (ºF) Pressure Precipitation (in)